createdAt,value
2023-03-02T00:03:32.596Z,100977.28
2023-03-02T00:08:35.803Z,100964.88
2023-03-02T00:13:40.202Z,100971.28
2023-03-02T00:18:43.058Z,100957.06
2023-03-02T00:23:45.977Z,100960.84
2023-03-02T00:28:50.124Z,100947.59
2023-03-02T00:33:54.959Z,100947.84
2023-03-02T00:38:58.215Z,100952.47
2023-03-02T00:44:02.424Z,100947.22
2023-03-02T00:49:05.208Z,100947.41
2023-03-02T00:54:07.987Z,100946.81
2023-03-02T00:59:26.183Z,100938.78
2023-03-02T01:04:38.348Z,100935.53
2023-03-02T01:09:44.680Z,100934.63
2023-03-02T01:14:50.788Z,100923.19
2023-03-02T01:19:55.258Z,100923.34
2023-03-02T01:24:58.758Z,100922.66
2023-03-02T01:30:03.012Z,100920.91
2023-03-02T01:35:07.808Z,100917.44
2023-03-02T01:40:14.089Z,100906.91
2023-03-02T01:45:47.079Z,100904.47
2023-03-02T01:50:54.824Z,100901.00
2023-03-02T01:56:00.043Z,100902.97
2023-03-02T02:01:05.782Z,100889.63
2023-03-02T02:06:18.141Z,100895.19
2023-03-02T02:11:21.119Z,100895.34
2023-03-02T02:16:29.883Z,100891.00
2023-03-02T02:21:32.887Z,100898.38
2023-03-02T02:26:42.397Z,100896.88
2023-03-02T02:31:49.001Z,100884.41
2023-03-02T02:36:56.981Z,100890.63
2023-03-02T02:42:05.180Z,100888.19
2023-03-02T02:47:17.420Z,100882.03
2023-03-02T02:52:24.507Z,100878.41
2023-03-02T02:57:31.495Z,100876.81
2023-03-02T03:02:40.854Z,100863.38
2023-03-02T03:07:44.121Z,100866.16
2023-03-02T03:12:48.816Z,100871.63
2023-03-02T03:17:55.970Z,100869.94
2023-03-02T03:23:00.787Z,100866.50
2023-03-02T03:28:07.256Z,100865.63
2023-03-02T03:33:11.961Z,100858.66
2023-03-02T03:38:16.029Z,100852.44
2023-03-02T03:43:23.844Z,100841.84
2023-03-02T03:48:29.608Z,100848.16
2023-03-02T03:53:32.486Z,100844.81
2023-03-02T03:58:37.532Z,100842.13
2023-03-02T04:03:40.947Z,100839.56
2023-03-02T04:08:43.750Z,100837.84
2023-03-02T04:13:48.830Z,100845.09
2023-03-02T04:18:51.947Z,100845.09
2023-03-02T04:23:55.447Z,100848.06
2023-03-02T04:29:00.605Z,100845.44
2023-03-02T04:34:05.030Z,100851.06
2023-03-02T04:39:10.185Z,100853.81
2023-03-02T04:44:15.342Z,100852.16
2023-03-02T04:49:20.178Z,100842.13
2023-03-02T04:54:26.878Z,100848.44
2023-03-02T04:59:31.105Z,100848.53
2023-03-02T05:04:34.494Z,100846.78
2023-03-02T05:09:37.358Z,100844.31
2023-03-02T05:14:41.470Z,100835.31
2023-03-02T05:19:44.401Z,100840.84
2023-03-02T05:24:47.158Z,100842.59
2023-03-02T05:29:51.475Z,100836.50
2023-03-02T05:34:54.268Z,100844.53
2023-03-02T05:39:57.045Z,100838.41
2023-03-02T05:45:01.303Z,100842.91
2023-03-02T05:50:04.487Z,100846.53
2023-03-02T05:55:08.429Z,100852.94
2023-03-02T06:00:14.958Z,100853.00
2023-03-02T06:05:19.602Z,100848.66
2023-03-02T06:10:23.001Z,100858.53
2023-03-02T06:15:29.714Z,100853.25
2023-03-02T06:20:32.540Z,100859.47
2023-03-02T06:25:36.943Z,100871.25
2023-03-02T06:30:41.093Z,100879.31
2023-03-02T06:35:44.003Z,100877.50
2023-03-02T06:40:47.686Z,100866.81
2023-03-02T06:45:51.926Z,100871.56
2023-03-02T06:50:54.975Z,100878.50
2023-03-02T06:55:57.762Z,100878.44
2023-03-02T07:01:01.989Z,100877.53
2023-03-02T07:06:05.268Z,100870.66
2023-03-02T07:11:11.536Z,100873.13
2023-03-02T07:16:16.800Z,100876.69
2023-03-02T07:21:19.788Z,100867.75
2023-03-02T07:26:22.858Z,100871.41
2023-03-02T07:31:27.042Z,100868.81
2023-03-02T07:36:29.992Z,100870.66
2023-03-02T07:41:33.267Z,100868.81
2023-03-02T07:46:39.145Z,100866.13
2023-03-02T07:51:42.097Z,100876.00
2023-03-02T07:56:46.094Z,100873.03
2023-03-02T08:01:50.613Z,100892.75
2023-03-02T08:06:53.787Z,100900.47
2023-03-02T08:11:56.664Z,100900.41
2023-03-02T08:17:00.806Z,100887.53
2023-03-02T08:22:03.799Z,100884.34
2023-03-02T08:27:06.672Z,100878.06
2023-03-02T08:32:11.118Z,100875.88
2023-03-02T08:37:13.973Z,100875.78
2023-03-02T08:42:17.840Z,100872.97
2023-03-02T08:47:22.049Z,100865.06
2023-03-02T08:52:24.873Z,100867.94
2023-03-02T08:57:27.677Z,100861.09
2023-03-02T09:02:31.824Z,100854.44
2023-03-02T09:07:34.650Z,100850.41
2023-03-02T09:12:37.619Z,100846.34
2023-03-02T09:17:41.804Z,100845.09
2023-03-02T09:22:48.608Z,100843.94
2023-03-02T09:27:51.383Z,100844.56
2023-03-02T09:32:55.830Z,100843.38
2023-03-02T09:37:58.687Z,100845.03
2023-03-02T09:43:30.309Z,100842.16
2023-03-02T09:48:41.702Z,100850.94
2023-03-02T09:53:52.378Z,100866.03
2023-03-02T09:59:00.057Z,100848.88
2023-03-02T10:04:16.537Z,100844.38
2023-03-02T10:09:19.601Z,100834.47
2023-03-02T10:14:28.069Z,100841.44
2023-03-02T10:19:42.153Z,100837.69
2023-03-02T10:24:51.269Z,100832.16
2023-03-02T10:30:00.900Z,100832.94
2023-03-02T10:35:17.211Z,100822.88
2023-03-02T10:40:42.946Z,100832.47
2023-03-02T10:45:46.386Z,100812.63
2023-03-02T10:50:55.078Z,100820.47
2023-03-02T10:55:57.884Z,100810.34
2023-03-02T11:01:02.714Z,100808.41
2023-03-02T11:06:22.453Z,100794.63
2023-03-02T11:11:26.398Z,100787.25
2023-03-02T11:16:33.294Z,100785.22
2023-03-02T11:21:42.226Z,100782.28
2023-03-02T11:26:48.371Z,100775.66
2023-03-02T11:31:54.624Z,100776.38
2023-03-02T11:37:05.233Z,100772.00
2023-03-02T11:42:19.902Z,100754.44
2023-03-02T11:47:24.230Z,100756.78
2023-03-02T11:52:33.073Z,100752.03
2023-03-02T11:57:40.099Z,100747.41
2023-03-02T12:02:42.867Z,100740.31
2023-03-02T12:07:58.692Z,100736.31
2023-03-02T12:13:14.568Z,100733.16
2023-03-02T12:18:47.433Z,100719.72
2023-03-02T12:24:01.578Z,100719.66
2023-03-02T12:29:08.507Z,100721.41
2023-03-02T12:34:32.320Z,100695.75
2023-03-02T12:40:01.489Z,100690.16
2023-03-02T12:45:15.414Z,100683.06
2023-03-02T12:50:21.943Z,100679.97
2023-03-02T12:55:26.261Z,100675.06
2023-03-02T13:00:31.142Z,100664.97
2023-03-02T13:05:36.964Z,100664.84
2023-03-02T13:10:43.065Z,100663.41
2023-03-02T13:15:50.901Z,100656.19
2023-03-02T13:20:54.657Z,100644.97
2023-03-02T13:26:00.468Z,100635.44
2023-03-02T13:31:05.623Z,100636.19
2023-03-02T13:36:09.135Z,100627.41
2023-03-02T13:41:23.041Z,100627.06
2023-03-02T13:46:28.816Z,100618.66
2023-03-02T13:51:34.680Z,100617.03
2023-03-02T13:56:41.449Z,100613.72
2023-03-02T14:01:44.758Z,100602.06
2023-03-02T14:06:48.081Z,100594.25
2023-03-02T14:11:55.941Z,100599.31
2023-03-02T14:16:58.745Z,100603.81
2023-03-02T14:22:01.530Z,100604.25
2023-03-02T14:27:05.719Z,100595.97
2023-03-02T14:32:11.711Z,100585.66
2023-03-02T14:37:18.007Z,100583.50
2023-03-02T14:42:22.971Z,100573.50
2023-03-02T14:47:25.778Z,100562.38
2023-03-02T14:52:34.039Z,100568.91
2023-03-02T14:57:39.203Z,100562.88
2023-03-02T15:02:42.228Z,100556.19
2023-03-02T15:07:45.056Z,100555.53
2023-03-02T15:12:49.316Z,100559.63
2023-03-02T15:17:52.073Z,100554.59
2023-03-02T15:22:54.851Z,100551.66
2023-03-02T15:27:59.225Z,100554.19
2023-03-02T15:33:01.984Z,100549.47
2023-03-02T15:38:04.865Z,100555.66
2023-03-02T15:43:09.261Z,100556.78
2023-03-02T15:48:13.571Z,100549.47
2023-03-02T15:53:16.528Z,100552.53
2023-03-02T15:58:21.800Z,100546.66
2023-03-02T16:03:25.033Z,100558.63
2023-03-02T16:08:28.067Z,100550.75
2023-03-02T16:13:32.726Z,100543.16
2023-03-02T16:18:35.662Z,100551.34
2023-03-02T16:23:38.571Z,100548.84
2023-03-02T16:28:43.189Z,100556.72
2023-03-02T16:33:46.890Z,100546.91
2023-03-02T16:38:49.745Z,100547.38
2023-03-02T16:43:55.717Z,100550.06
2023-03-02T16:48:59.606Z,100558.44
2023-03-02T16:54:02.449Z,100554.28
2023-03-02T16:59:06.584Z,100565.56
2023-03-02T17:04:09.636Z,100566.88
2023-03-02T17:09:13.604Z,100569.47
2023-03-02T17:14:17.839Z,100573.91
2023-03-02T17:19:20.840Z,100573.78
2023-03-02T17:24:23.699Z,100580.94
2023-03-02T17:29:27.932Z,100579.00
2023-03-02T17:34:31.315Z,100581.47
2023-03-02T17:39:34.077Z,100585.72
2023-03-02T17:44:40.645Z,100595.34
2023-03-02T17:49:45.122Z,100595.13
2023-03-02T17:54:47.891Z,100605.72
2023-03-02T17:59:52.074Z,100610.81
2023-03-02T18:04:54.850Z,100621.31
2023-03-02T18:09:57.910Z,100624.75
2023-03-02T18:15:02.476Z,100630.91
2023-03-02T18:20:05.995Z,100630.81
2023-03-02T18:25:09.595Z,100628.78
2023-03-02T18:30:14.689Z,100644.75
2023-03-02T18:35:19.369Z,100647.34
2023-03-02T18:40:22.370Z,100656.09
2023-03-02T18:45:28.840Z,100663.22
2023-03-02T18:50:31.764Z,100663.03
2023-03-02T18:55:34.516Z,100670.09
2023-03-02T19:00:38.722Z,100667.19
2023-03-02T19:05:42.401Z,100672.66
2023-03-02T19:10:45.244Z,100662.97
2023-03-02T19:15:49.605Z,100672.66
2023-03-02T19:20:54.263Z,100682.94
2023-03-02T19:25:57.290Z,100690.66
2023-03-02T19:31:04.578Z,100689.78
2023-03-02T19:36:08.477Z,100689.41
2023-03-02T19:41:13.919Z,100685.84
2023-03-02T19:46:19.113Z,100693.63
2023-03-02T19:51:22.044Z,100708.75
2023-03-02T19:56:29.995Z,100708.75
2023-03-02T20:01:34.343Z,100713.28
2023-03-02T20:06:37.335Z,100721.13
2023-03-02T20:11:40.460Z,100719.88
2023-03-02T20:16:45.050Z,100716.44
2023-03-02T20:21:48.250Z,100721.72
2023-03-02T20:26:51.665Z,100720.75
2023-03-02T20:31:58.241Z,100711.81
2023-03-02T20:37:03.216Z,100709.97
2023-03-02T20:42:08.029Z,100711.50
2023-03-02T20:47:15.077Z,100717.88
2023-03-02T20:52:18.855Z,100724.03
2023-03-02T20:57:23.385Z,100719.50
2023-03-02T21:02:28.164Z,100718.22
2023-03-02T21:07:31.537Z,100724.69
2023-03-02T21:12:34.932Z,100720.06
2023-03-02T21:17:39.398Z,100713.63
2023-03-02T21:22:42.481Z,100721.16
2023-03-02T21:27:46.402Z,100719.69
2023-03-02T21:32:51.265Z,100723.03
2023-03-02T21:37:57.862Z,100726.31
2023-03-02T21:43:01.771Z,100732.38
2023-03-02T21:48:07.266Z,100742.41
2023-03-02T21:53:10.278Z,100731.53
2023-03-02T21:58:13.310Z,100737.69
2023-03-02T22:03:17.840Z,100737.50
2023-03-02T22:08:22.170Z,100739.41
2023-03-02T22:13:27.181Z,100734.88
2023-03-02T22:18:32.454Z,100736.06
2023-03-02T22:23:35.199Z,100731.91
2023-03-02T22:28:40.909Z,100737.69
2023-03-02T22:33:45.084Z,100723.44
2023-03-02T22:38:47.917Z,100724.50
2023-03-02T22:43:53.025Z,100720.00
2023-03-02T22:48:57.575Z,100722.78
2023-03-02T22:54:01.697Z,100722.88
2023-03-02T22:59:10.152Z,100719.41
2023-03-02T23:04:19.486Z,100739.34
2023-03-02T23:09:24.731Z,100741.53
2023-03-02T23:14:30.105Z,100739.44
2023-03-02T23:19:34.264Z,100752.31
2023-03-02T23:24:37.427Z,100737.69
2023-03-02T23:29:40.842Z,100743.56
2023-03-02T23:34:45.164Z,100736.84
2023-03-02T23:39:48.308Z,100737.13
2023-03-02T23:44:51.157Z,100726.63
2023-03-02T23:49:55.400Z,100740.38
2023-03-02T23:54:59.068Z,100736.22
